Time;durP1;ratioP1;P1;durP2;ratioP2;P2;SDS_P1;SDS_P2;PMS_P1;PMS_P2;Temp;Humidity;BMP_temperature;BMP_pressure;BME280_temperature;BME280_humidity;BME280_pressure;Samples;Min_cycle;Max_cycle;Signal;HPM_P1;HPM_P2
2023/11/27 00:00:38;;;;;;;7.77;4.00;;;;;;;;;;5018368;28;20319;-79
2023/11/27 00:03:04;;;;;;;10.37;4.07;;;;;;;;;;5015381;28;20095;-78
2023/11/27 00:05:30;;;;;;;8.57;4.20;;;;;;;;;;5030122;28;20040;-78
2023/11/27 00:07:56;;;;;;;13.10;4.20;;;;;;;;;;5012045;28;20029;-78
2023/11/27 00:10:25;;;;;;;9.47;4.20;;;;;;;;;;5006715;28;20026;-78
2023/11/27 00:12:51;;;;;;;8.70;3.97;;;;;;;;;;5014419;28;20112;-78
2023/11/27 00:15:17;;;;;;;10.37;4.07;;;;;;;;;;5007462;28;20381;-78
2023/11/27 00:17:43;;;;;;;7.10;3.77;;;;;;;;;;5007074;28;20025;-78
2023/11/27 00:20:09;;;;;;;11.27;4.47;;;;;;;;;;5030386;28;20862;-79
2023/11/27 00:22:38;;;;;;;10.90;4.70;;;;;;;;;;5030851;28;20117;-78
2023/11/27 00:25:04;;;;;;;7.37;3.27;;;;;;;;;;5014586;28;20108;-78
2023/11/27 00:27:30;;;;;;;8.60;3.80;;;;;;;;;;5014703;28;20037;-79
2023/11/27 00:29:56;;;;;;;7.07;3.87;;;;;;;;;;5010495;28;20034;-78
2023/11/27 00:32:24;;;;;;;8.10;4.10;;;;;;;;;;5010912;28;20433;-78
2023/11/27 00:34:50;;;;;;;8.97;4.03;;;;;;;;;;5029506;28;20029;-79
2023/11/27 00:37:18;;;;;;;13.87;3.93;;;;;;;;;;5011866;28;20043;-78
2023/11/27 00:39:44;;;;;;;14.47;3.80;;;;;;;;;;5014207;28;20079;-79
2023/11/27 00:42:10;;;;;;;7.63;3.97;;;;;;;;;;5015847;28;20021;-79
2023/11/27 00:44:36;;;;;;;12.10;3.60;;;;;;;;;;5013282;28;20120;-78
2023/11/27 00:47:02;;;;;;;9.10;4.37;;;;;;;;;;5027960;28;20438;-78
2023/11/27 00:49:28;;;;;;;9.37;4.10;;;;;;;;;;5013484;28;20064;-78
2023/11/27 00:51:54;;;;;;;5.50;3.17;;;;;;;;;;5014317;28;20079;-78
2023/11/27 00:54:20;;;;;;;8.33;3.40;;;;;;;;;;5014335;28;20029;-78
2023/11/27 00:56:46;;;;;;;8.70;3.70;;;;;;;;;;5015148;28;20450;-79
2023/11/27 00:59:12;;;;;;;12.93;3.30;;;;;;;;;;5013484;28;20057;-77
2023/11/27 01:01:38;;;;;;;10.43;3.97;;;;;;;;;;5016481;28;20068;-79
2023/11/27 01:04:04;;;;;;;7.20;4.03;;;;;;;;;;5013385;28;20033;-78
2023/11/27 01:06:30;;;;;;;10.60;3.70;;;;;;;;;;5014028;28;20033;-78
2023/11/27 01:08:56;;;;;;;9.70;4.10;;;;;;;;;;5014704;28;20179;-78
2023/11/27 01:11:22;;;;;;;7.67;3.93;;;;;;;;;;5030713;28;20124;-78
2023/11/27 01:13:48;;;;;;;19.07;4.17;;;;;;;;;;5014513;28;20092;-78
2023/11/27 01:16:14;;;;;;;8.70;4.37;;;;;;;;;;5012681;28;20021;-78
2023/11/27 01:18:40;;;;;;;13.53;4.23;;;;;;;;;;5013899;28;20443;-78
2023/11/27 01:21:06;;;;;;;11.60;4.57;;;;;;;;;;5013118;28;20180;-78
2023/11/27 01:23:32;;;;;;;9.23;4.60;;;;;;;;;;5014237;28;20037;-79
2023/11/27 01:25:58;;;;;;;11.33;5.03;;;;;;;;;;5013739;28;20112;-78
2023/11/27 01:28:24;;;;;;;10.80;5.63;;;;;;;;;;5011800;28;20123;-78
2023/11/27 01:30:50;;;;;;;8.20;4.77;;;;;;;;;;5034672;28;20040;-78
2023/11/27 01:33:16;;;;;;;10.90;5.40;;;;;;;;;;5013901;28;20033;-79
2023/11/27 01:35:42;;;;;;;14.73;5.53;;;;;;;;;;5013774;28;20053;-79
2023/11/27 01:38:08;;;;;;;13.33;5.70;;;;;;;;;;5013757;28;20891;-78
2023/11/27 01:40:34;;;;;;;11.57;6.07;;;;;;;;;;5014269;28;20029;-78
2023/11/27 01:43:00;;;;;;;7.50;4.93;;;;;;;;;;5013031;28;20029;-78
2023/11/27 01:45:26;;;;;;;10.00;5.80;;;;;;;;;;5010415;28;20041;-78
2023/11/27 01:47:53;;;;;;;11.07;6.43;;;;;;;;;;5014809;28;20053;-78
2023/11/27 01:50:19;;;;;;;10.93;5.63;;;;;;;;;;5014473;28;20029;-78
2023/11/27 01:52:45;;;;;;;11.10;5.40;;;;;;;;;;5029835;28;20022;-78
2023/11/27 01:55:11;;;;;;;14.10;5.43;;;;;;;;;;5014113;28;20041;-78
2023/11/27 01:57:37;;;;;;;10.93;5.83;;;;;;;;;;5017095;28;20087;-79
2023/11/27 02:00:05;;;;;;;11.87;5.73;;;;;;;;;;5032917;28;20056;-78
2023/11/27 02:02:31;;;;;;;12.20;5.77;;;;;;;;;;5033447;28;20029;-78
2023/11/27 02:04:59;;;;;;;11.73;5.53;;;;;;;;;;5016607;28;20033;-78
2023/11/27 02:07:25;;;;;;;10.73;5.90;;;;;;;;;;5033488;28;20099;-78
2023/11/27 02:09:51;;;;;;;13.03;5.90;;;;;;;;;;5016420;28;20045;-79
2023/11/27 02:12:18;;;;;;;12.80;6.23;;;;;;;;;;5016969;28;20561;-77
2023/11/27 02:14:45;;;;;;;10.17;6.50;;;;;;;;;;5013316;28;20040;-78
2023/11/27 02:17:11;;;;;;;8.83;4.90;;;;;;;;;;5016222;28;20040;-79
2023/11/27 02:19:37;;;;;;;11.57;5.83;;;;;;;;;;5016420;28;20120;-78
2023/11/27 02:22:03;;;;;;;15.67;6.17;;;;;;;;;;5016640;28;20025;-78
2023/11/27 02:24:29;;;;;;;12.77;6.17;;;;;;;;;;5015639;28;20025;-79
2023/11/27 02:26:55;;;;;;;10.33;5.70;;;;;;;;;;5015838;28;20048;-78
2023/11/27 02:29:21;;;;;;;8.23;5.00;;;;;;;;;;5015999;28;20044;-78
2023/11/27 02:31:47;;;;;;;10.13;5.97;;;;;;;;;;5032262;28;20158;-78
2023/11/27 02:34:13;;;;;;;8.77;5.10;;;;;;;;;;5016514;28;20038;-78
2023/11/27 02:36:39;;;;;;;13.77;5.23;;;;;;;;;;5032943;28;20030;-78
2023/11/27 02:39:06;;;;;;;9.33;5.30;;;;;;;;;;5016596;28;20388;-78
2023/11/27 02:41:34;;;;;;;8.37;4.70;;;;;;;;;;5014981;28;20255;-78
2023/11/27 02:44:00;;;;;;;10.67;5.47;;;;;;;;;;5014903;28;20116;-78
2023/11/27 02:46:26;;;;;;;9.30;4.90;;;;;;;;;;5016091;28;21791;-78
2023/11/27 02:48:52;;;;;;;8.60;5.10;;;;;;;;;;5015020;28;20036;-78
2023/11/27 02:51:20;;;;;;;9.17;4.97;;;;;;;;;;5016810;28;20136;-78
2023/11/27 02:53:46;;;;;;;8.40;5.53;;;;;;;;;;5011136;28;20038;-78
2023/11/27 02:56:13;;;;;;;15.47;4.93;;;;;;;;;;5017556;28;20116;-79
2023/11/27 02:58:39;;;;;;;17.17;6.37;;;;;;;;;;5033639;28;20033;-78
2023/11/27 03:01:07;;;;;;;9.53;5.93;;;;;;;;;;5016937;28;20021;-78
2023/11/27 03:03:34;;;;;;;14.67;6.27;;;;;;;;;;5033164;28;20021;-79
2023/11/27 03:06:00;;;;;;;17.37;5.43;;;;;;;;;;5015658;28;20444;-78
2023/11/27 03:08:26;;;;;;;10.43;5.50;;;;;;;;;;5015930;28;20030;-79
2023/11/27 03:10:52;;;;;;;10.37;5.43;;;;;;;;;;5033567;28;20040;-78
2023/11/27 03:13:18;;;;;;;12.87;5.23;;;;;;;;;;5035271;28;20064;-79
2023/11/27 03:15:44;;;;;;;10.57;4.93;;;;;;;;;;5016168;28;20094;-78
2023/11/27 03:18:10;;;;;;;12.60;5.30;;;;;;;;;;5010050;28;20502;-79
2023/11/27 03:20:38;;;;;;;10.67;5.27;;;;;;;;;;5031779;28;20218;-78
2023/11/27 03:23:04;;;;;;;10.57;5.07;;;;;;;;;;5011007;28;20021;-78
2023/11/27 03:25:30;;;;;;;11.47;4.97;;;;;;;;;;5016878;28;20033;-78
2023/11/27 03:27:56;;;;;;;9.97;5.43;;;;;;;;;;5011854;28;20386;-79
2023/11/27 03:30:22;;;;;;;11.67;4.50;;;;;;;;;;5010201;28;20040;-78
2023/11/27 03:32:50;;;;;;;14.87;5.90;;;;;;;;;;5015760;28;20040;-78
2023/11/27 03:35:18;;;;;;;10.97;4.87;;;;;;;;;;5013939;28;20120;-78
2023/11/27 03:37:44;;;;;;;8.60;5.13;;;;;;;;;;5032312;28;20051;-78
2023/11/27 03:40:10;;;;;;;11.07;4.57;;;;;;;;;;5015605;28;20347;-78
2023/11/27 03:42:36;;;;;;;10.43;4.87;;;;;;;;;;5015388;28;20456;-78
2023/11/27 03:45:02;;;;;;;9.70;5.20;;;;;;;;;;5014688;28;20041;-79
2023/11/27 03:47:28;;;;;;;12.67;5.03;;;;;;;;;;5030811;28;20095;-78
2023/11/27 03:49:54;;;;;;;10.00;4.77;;;;;;;;;;5032376;28;20026;-79
2023/11/27 03:52:23;;;;;;;13.37;4.97;;;;;;;;;;5015659;28;20033;-78
2023/11/27 03:54:49;;;;;;;10.07;4.50;;;;;;;;;;5026839;28;20048;-78
2023/11/27 03:57:15;;;;;;;12.23;4.63;;;;;;;;;;5028596;28;20025;-78
2023/11/27 03:59:42;;;;;;;8.27;3.97;;;;;;;;;;5015449;28;20105;-79
2023/11/27 04:02:10;;;;;;;13.57;5.70;;;;;;;;;;5032459;28;20063;-79
2023/11/27 04:04:38;;;;;;;9.33;3.93;;;;;;;;;;5032972;28;20061;-78
2023/11/27 04:07:04;;;;;;;10.50;4.20;;;;;;;;;;5013676;28;20038;-78
2023/11/27 04:09:30;;;;;;;12.93;4.73;;;;;;;;;;5032840;28;20029;-79
2023/11/27 04:11:56;;;;;;;9.07;4.47;;;;;;;;;;5014807;28;20060;-79
2023/11/27 04:14:22;;;;;;;8.20;4.10;;;;;;;;;;5015153;28;20043;-79
2023/11/27 04:16:48;;;;;;;13.93;4.83;;;;;;;;;;5014765;28;20083;-78
2023/11/27 04:19:15;;;;;;;8.90;4.47;;;;;;;;;;5027354;28;20029;-78
2023/11/27 04:21:43;;;;;;;11.27;4.23;;;;;;;;;;5032710;28;20438;-79
2023/11/27 04:24:09;;;;;;;12.77;5.20;;;;;;;;;;5032723;28;20108;-78
2023/11/27 04:26:35;;;;;;;8.83;4.07;;;;;;;;;;5014630;28;20025;-78
2023/11/27 04:29:05;;;;;;;6.43;4.53;;;;;;;;;;5014413;28;20044;-78
2023/11/27 04:31:32;;;;;;;9.53;5.20;;;;;;;;;;5014007;28;20052;-78
2023/11/27 04:33:58;;;;;;;7.90;4.07;;;;;;;;;;5009892;28;20354;-79
2023/11/27 04:36:24;;;;;;;8.33;4.20;;;;;;;;;;5014365;28;20033;-78
2023/11/27 04:38:50;;;;;;;14.37;4.93;;;;;;;;;;5014355;28;20144;-79
2023/11/27 04:41:19;;;;;;;13.63;5.50;;;;;;;;;;5013077;28;20197;-79
2023/11/27 04:43:45;;;;;;;11.40;5.13;;;;;;;;;;5030548;28;20087;-79
2023/11/27 04:46:11;;;;;;;10.97;4.57;;;;;;;;;;5001414;28;20034;-78
2023/11/27 04:48:37;;;;;;;11.07;4.33;;;;;;;;;;5007987;28;20108;-79
2023/11/27 04:51:03;;;;;;;13.77;5.47;;;;;;;;;;5001344;28;20458;-79
2023/11/27 04:53:29;;;;;;;12.67;5.13;;;;;;;;;;5009273;28;20107;-78
2023/11/27 04:55:56;;;;;;;10.57;4.80;;;;;;;;;;5034547;28;20034;-78
2023/11/27 04:58:22;;;;;;;13.63;5.17;;;;;;;;;;5017363;28;20450;-79
2023/11/27 05:00:50;;;;;;;17.40;6.13;;;;;;;;;;5026800;28;20112;-79
2023/11/27 05:03:16;;;;;;;11.83;5.83;;;;;;;;;;5018150;28;20112;-78
2023/11/27 05:05:45;;;;;;;13.80;5.87;;;;;;;;;;5017425;28;20365;-79
2023/11/27 05:08:14;;;;;;;13.10;5.83;;;;;;;;;;5018003;28;20437;-79
2023/11/27 05:10:40;;;;;;;15.20;5.80;;;;;;;;;;5011507;28;20041;-79
2023/11/27 05:13:06;;;;;;;12.03;5.57;;;;;;;;;;5002472;28;20026;-79
2023/11/27 05:15:32;;;;;;;13.67;6.13;;;;;;;;;;5017473;28;20439;-79
2023/11/27 05:17:58;;;;;;;8.13;5.13;;;;;;;;;;5035705;28;20026;-80
2023/11/27 05:20:24;;;;;;;16.07;5.77;;;;;;;;;;5006555;28;20462;-79
2023/11/27 05:22:51;;;;;;;12.33;5.37;;;;;;;;;;5018949;28;20022;-79
2023/11/27 05:25:19;;;;;;;13.90;5.23;;;;;;;;;;5019343;28;20180;-79
2023/11/27 05:27:45;;;;;;;13.73;6.33;;;;;;;;;;5012903;28;20088;-78
2023/11/27 05:30:11;;;;;;;15.40;4.90;;;;;;;;;;5004697;28;20034;-79
2023/11/27 05:32:41;;;;;;;15.67;6.07;;;;;;;;;;5032961;28;20035;-78
2023/11/27 05:35:07;;;;;;;12.33;5.67;;;;;;;;;;5021459;28;20099;-78
2023/11/27 05:37:33;;;;;;;8.83;5.90;;;;;;;;;;5008184;28;20105;-78
2023/11/27 05:40:03;;;;;;;14.17;5.83;;;;;;;;;;5025870;28;20085;-78
2023/11/27 05:42:31;;;;;;;14.20;5.60;;;;;;;;;;5014620;28;20030;-79
2023/11/27 05:44:59;;;;;;;8.17;6.03;;;;;;;;;;5016270;28;20042;-79
2023/11/27 05:47:25;;;;;;;16.10;5.90;;;;;;;;;;5008523;28;20029;-79
2023/11/27 05:49:52;;;;;;;12.57;5.60;;;;;;;;;;5036260;28;20128;-79
2023/11/27 05:52:18;;;;;;;14.20;6.17;;;;;;;;;;5017518;28;20096;-79
2023/11/27 05:54:47;;;;;;;11.03;5.40;;;;;;;;;;5014210;28;20366;-79
2023/11/27 05:57:13;;;;;;;12.23;5.07;;;;;;;;;;5021242;28;20025;-79
2023/11/27 05:59:39;;;;;;;11.10;5.27;;;;;;;;;;5018180;28;20022;-79
2023/11/27 06:02:05;;;;;;;11.23;5.60;;;;;;;;;;5036847;28;20025;-79
2023/11/27 06:04:33;;;;;;;16.87;6.57;;;;;;;;;;5021072;28;20453;-79
2023/11/27 06:06:59;;;;;;;13.97;5.93;;;;;;;;;;5035337;28;20034;-80
2023/11/27 06:09:26;;;;;;;14.93;5.33;;;;;;;;;;5020751;28;20031;-80
2023/11/27 06:11:53;;;;;;;20.17;7.13;;;;;;;;;;5021230;28;20036;-80
2023/11/27 06:14:19;;;;;;;6.57;4.33;;;;;;;;;;5020666;28;20033;-80
2023/11/27 06:16:45;;;;;;;14.00;5.10;;;;;;;;;;5028039;28;20032;-81
2023/11/27 06:19:11;;;;;;;13.27;6.57;;;;;;;;;;5013386;28;20021;-80
2023/11/27 06:21:39;;;;;;;13.40;5.47;;;;;;;;;;5018267;28;20115;-80
2023/11/27 06:24:08;;;;;;;13.77;5.80;;;;;;;;;;5013752;28;20060;-80
2023/11/27 06:26:34;;;;;;;9.97;6.67;;;;;;;;;;5017289;28;20418;-79
2023/11/27 06:29:00;;;;;;;12.23;5.97;;;;;;;;;;5014035;28;20786;-79
2023/11/27 06:31:26;;;;;;;17.67;6.17;;;;;;;;;;5018054;28;20036;-82
2023/11/27 06:33:52;;;;;;;13.07;5.83;;;;;;;;;;5034161;28;20037;-79
2023/11/27 06:36:18;;;;;;;14.53;6.37;;;;;;;;;;5011512;28;20029;-80
2023/11/27 06:38:44;;;;;;;14.77;6.60;;;;;;;;;;5035751;28;20112;-80
2023/11/27 06:41:11;;;;;;;12.50;6.47;;;;;;;;;;5033776;28;20029;-80
2023/11/27 06:43:37;;;;;;;13.07;5.80;;;;;;;;;;5032298;28;20150;-81
2023/11/27 06:46:03;;;;;;;14.03;6.37;;;;;;;;;;5018427;28;20087;-80
2023/11/27 06:48:29;;;;;;;16.93;6.20;;;;;;;;;;5019088;28;20033;-80
2023/11/27 06:50:55;;;;;;;14.70;6.83;;;;;;;;;;5018734;28;20017;-82
2023/11/27 06:53:24;;;;;;;17.13;6.13;;;;;;;;;;5018621;28;21666;-80
2023/11/27 06:55:50;;;;;;;15.90;6.97;;;;;;;;;;5018065;28;20029;-80
2023/11/27 06:58:16;;;;;;;13.67;6.37;;;;;;;;;;5015737;28;20495;-83
2023/11/27 07:00:42;;;;;;;13.23;6.73;;;;;;;;;;5016700;28;20087;-80
2023/11/27 07:03:08;;;;;;;12.00;6.03;;;;;;;;;;5019932;28;20066;-82
2023/11/27 07:05:34;;;;;;;12.87;6.70;;;;;;;;;;5037746;28;20121;-80
2023/11/27 07:08:00;;;;;;;22.57;7.17;;;;;;;;;;5019992;28;20025;-81
2023/11/27 07:10:28;;;;;;;13.73;7.10;;;;;;;;;;5017452;28;20033;-83
2023/11/27 07:12:54;;;;;;;15.77;6.80;;;;;;;;;;5019569;28;20039;-82
2023/11/27 07:15:21;;;;;;;17.07;6.97;;;;;;;;;;5018034;28;20029;-83
2023/11/27 07:17:47;;;;;;;19.50;7.37;;;;;;;;;;5019448;28;20132;-80
2023/11/27 07:20:17;;;;;;;12.03;7.00;;;;;;;;;;5019813;28;20064;-82
2023/11/27 07:22:44;;;;;;;14.50;7.10;;;;;;;;;;5036776;28;20026;-85
2023/11/27 07:25:12;;;;;;;14.63;7.33;;;;;;;;;;5020040;28;20040;-84
2023/11/27 07:27:38;;;;;;;11.23;6.00;;;;;;;;;;5018575;28;20049;-82
2023/11/27 07:30:04;;;;;;;10.97;6.23;;;;;;;;;;5017719;28;20520;-82
2023/11/27 07:32:30;;;;;;;14.83;5.57;;;;;;;;;;5019793;28;20067;-82
2023/11/27 07:34:56;;;;;;;11.50;6.37;;;;;;;;;;5019300;28;20040;-82
2023/11/27 07:37:22;;;;;;;16.93;6.17;;;;;;;;;;5019287;28;20030;-85
2023/11/27 07:39:49;;;;;;;12.33;5.83;;;;;;;;;;5020467;28;20041;-81
2023/11/27 07:42:15;;;;;;;10.10;5.03;;;;;;;;;;5018995;28;20151;-85
2023/11/27 07:44:43;;;;;;;12.73;5.83;;;;;;;;;;5020775;28;20541;-82
2023/11/27 07:47:11;;;;;;;10.90;4.90;;;;;;;;;;5018487;28;21462;-86
2023/11/27 07:49:37;;;;;;;13.60;4.57;;;;;;;;;;5021017;28;20034;-83
2023/11/27 07:52:04;;;;;;;8.83;5.13;;;;;;;;;;5020336;28;20029;-85
2023/11/27 07:54:32;;;;;;;10.17;4.57;;;;;;;;;;5018893;28;20108;-82
2023/11/27 07:56:58;;;;;;;10.40;4.67;;;;;;;;;;5019209;28;20033;-85
2023/11/27 07:59:25;;;;;;;12.40;5.47;;;;;;;;;;5021439;28;20029;-81
2023/11/27 08:01:52;;;;;;;14.93;5.30;;;;;;;;;;5022210;28;20044;-86
2023/11/27 08:04:18;;;;;;;9.23;5.30;;;;;;;;;;5035612;28;20140;-84
2023/11/27 08:06:45;;;;;;;14.47;5.40;;;;;;;;;;5020270;28;20026;-82
2023/11/27 08:09:11;;;;;;;13.23;5.53;;;;;;;;;;5020031;28;20037;-82
2023/11/27 08:11:37;;;;;;;8.13;4.87;;;;;;;;;;5036037;28;20476;-85
2023/11/27 08:14:04;;;;;;;11.70;5.40;;;;;;;;;;5019732;28;20041;-82
2023/11/27 08:16:30;;;;;;;14.53;5.23;;;;;;;;;;5020899;28;20083;-83
2023/11/27 08:18:56;;;;;;;10.87;5.33;;;;;;;;;;5018742;28;20033;-84
2023/11/27 08:21:30;;;;;;;11.77;5.40;;;;;;;;;;5019806;28;20124;-87
2023/11/27 08:23:56;;;;;;;9.80;4.80;;;;;;;;;;5018251;28;20035;-85
2023/11/27 08:26:23;;;;;;;8.47;5.57;;;;;;;;;;5035692;28;20044;-84
2023/11/27 08:28:49;;;;;;;12.10;5.43;;;;;;;;;;5017167;28;20033;-82
2023/11/27 08:31:31;;;;;;;;;;;;;;;;;;;;;
2023/11/27 08:33:57;;;;;;;12.90;6.07;;;;;;;;;;5039084;28;20104;-81
2023/11/27 08:36:27;;;;;;;11.63;6.17;;;;;;;;;;5022524;28;20038;-80
2023/11/27 08:38:57;;;;;;;12.93;8.03;;;;;;;;;;5019446;28;20048;-81
2023/11/27 08:41:23;;;;;;;14.87;7.30;;;;;;;;;;5018644;28;20025;-81
2023/11/27 08:43:51;;;;;;;14.60;8.03;;;;;;;;;;5038900;28;20029;-82
2023/11/27 08:46:20;;;;;;;21.47;8.27;;;;;;;;;;5024851;28;20032;-83
2023/11/27 08:48:54;;;;;;;18.03;8.60;;;;;;;;;;5024094;28;20025;-81
2023/11/27 08:51:21;;;;;;;14.40;7.90;;;;;;;;;;5035930;28;20203;-80
2023/11/27 08:53:50;;;;;;;16.13;9.10;;;;;;;;;;5018207;28;20029;-80
2023/11/27 08:56:17;;;;;;;14.70;8.47;;;;;;;;;;5033535;28;20022;-81
2023/11/27 08:58:44;;;;;;;14.50;7.50;;;;;;;;;;5015410;28;20088;-82
2023/11/27 09:01:10;;;;;;;13.73;7.67;;;;;;;;;;5017944;28;20022;-81
2023/11/27 09:03:37;;;;;;;16.87;7.83;;;;;;;;;;5019544;28;20056;-85
2023/11/27 09:06:03;;;;;;;12.63;7.33;;;;;;;;;;5024255;28;20033;-81
2023/11/27 09:08:29;;;;;;;15.73;7.27;;;;;;;;;;5026943;28;20369;-79
2023/11/27 09:10:57;;;;;;;12.40;7.47;;;;;;;;;;5025364;28;20037;-80
2023/11/27 09:13:23;;;;;;;11.97;6.90;;;;;;;;;;5028939;28;20128;-80
2023/11/27 09:15:49;;;;;;;12.30;7.17;;;;;;;;;;5039318;28;20025;-81
2023/11/27 09:18:15;;;;;;;12.77;7.17;;;;;;;;;;5023884;28;20053;-81
2023/11/27 09:20:41;;;;;;;13.80;6.57;;;;;;;;;;5023879;28;20029;-80
2023/11/27 09:23:07;;;;;;;10.60;5.97;;;;;;;;;;5020901;28;20041;-80
2023/11/27 09:25:34;;;;;;;10.40;6.33;;;;;;;;;;5023740;28;20037;-80
2023/11/27 09:28:00;;;;;;;13.07;6.60;;;;;;;;;;5025245;28;20029;-80
2023/11/27 09:30:26;;;;;;;12.00;6.73;;;;;;;;;;5020032;28;20049;-79
2023/11/27 09:32:52;;;;;;;13.63;6.23;;;;;;;;;;5042252;28;20037;-81
2023/11/27 09:35:18;;;;;;;12.20;6.03;;;;;;;;;;5026094;28;20099;-79
2023/11/27 09:37:46;;;;;;;14.30;6.27;;;;;;;;;;5042638;28;20060;-80
2023/11/27 09:40:13;;;;;;;7.70;5.43;;;;;;;;;;5043803;28;20040;-79
2023/11/27 09:42:41;;;;;;;9.13;4.27;;;;;;;;;;5020863;28;20087;-80
2023/11/27 09:45:08;;;;;;;6.67;3.00;;;;;;;;;;5023832;28;20041;-80
2023/11/27 09:47:37;;;;;;;4.83;3.30;;;;;;;;;;5038276;28;20049;-80
2023/11/27 09:50:08;;;;;;;5.63;3.77;;;;;;;;;;5019911;28;20025;-80
2023/11/27 09:52:49;;;;;;;3.03;1.80;;;;;;;;;;5026292;28;20025;-79
2023/11/27 09:55:17;;;;;;;5.80;1.93;;;;;;;;;;5023673;28;20045;-80
2023/11/27 09:57:45;;;;;;;2.87;2.07;;;;;;;;;;5024735;28;20033;-81
2023/11/27 10:00:13;;;;;;;1.80;1.40;;;;;;;;;;5043997;28;20033;-80
2023/11/27 10:02:39;;;;;;;3.50;2.30;;;;;;;;;;5023956;28;20048;-81
2023/11/27 10:05:05;;;;;;;3.80;1.90;;;;;;;;;;5042020;28;20076;-80
2023/11/27 10:07:34;;;;;;;14.87;2.40;;;;;;;;;;5026125;28;20033;-80
2023/11/27 10:10:07;;;;;;;3.47;1.90;;;;;;;;;;5018520;28;20036;-80
2023/11/27 10:12:35;;;;;;;4.60;1.80;;;;;;;;;;5025415;28;20068;-81
2023/11/27 10:15:11;;;;;;;5.23;2.13;;;;;;;;;;5040237;28;20033;-80
2023/11/27 10:17:38;;;;;;;3.83;1.70;;;;;;;;;;5039360;28;20040;-81
2023/11/27 10:20:04;;;;;;;4.20;1.90;;;;;;;;;;5023159;28;20152;-80
2023/11/27 10:22:32;;;;;;;4.53;2.07;;;;;;;;;;5019925;28;20033;-80
2023/11/27 10:25:02;;;;;;;4.27;2.27;;;;;;;;;;5025744;28;20029;-82
2023/11/27 10:27:28;;;;;;;7.27;3.30;;;;;;;;;;5020670;28;20075;-80
2023/11/27 10:29:54;;;;;;;2.57;1.80;;;;;;;;;;5021798;28;20033;-81
2023/11/27 10:32:23;;;;;;;6.03;1.93;;;;;;;;;;5022985;28;20566;-81
2023/11/27 10:34:57;;;;;;;2.27;1.60;;;;;;;;;;5025958;28;20037;-80
2023/11/27 10:37:23;;;;;;;2.37;1.37;;;;;;;;;;5022862;28;20059;-80
2023/11/27 10:39:49;;;;;;;4.03;1.37;;;;;;;;;;5037020;28;20037;-80
2023/11/27 10:42:21;;;;;;;1.83;1.13;;;;;;;;;;5022684;28;20365;-81
2023/11/27 10:44:50;;;;;;;1.63;1.25;;;;;;;;;;5026950;28;20425;-81
2023/11/27 10:47:16;;;;;;;1.97;1.47;;;;;;;;;;5025877;28;20040;-81
2023/11/27 10:49:43;;;;;;;5.43;1.70;;;;;;;;;;5035252;28;20036;-81
2023/11/27 10:52:13;;;;;;;2.40;1.60;;;;;;;;;;5018404;28;20029;-82
2023/11/27 10:54:40;;;;;;;2.17;1.30;;;;;;;;;;5027299;28;20095;-80
2023/11/27 10:57:08;;;;;;;2.60;1.40;;;;;;;;;;5045256;28;20046;-81
2023/11/27 10:59:38;;;;;;;3.60;1.50;;;;;;;;;;5029531;28;20026;-81
2023/11/27 11:02:08;;;;;;;2.10;1.37;;;;;;;;;;5030124;28;20033;-82
2023/11/27 11:04:50;;;;;;;3.80;1.40;;;;;;;;;;5030275;28;20022;-80
2023/11/27 11:07:19;;;;;;;7.30;1.88;;;;;;;;;;5031150;28;20040;-81
2023/11/27 11:09:55;;;;;;;4.90;3.37;;;;;;;;;;5021685;28;20030;-82
2023/11/27 11:12:24;;;;;;;2.70;1.10;;;;;;;;;;5034253;28;20025;-81
2023/11/27 11:14:55;;;;;;;6.20;2.50;;;;;;;;;;5034281;28;20044;-81
2023/11/27 11:17:25;;;;;;;8.33;2.27;;;;;;;;;;5036051;28;20056;-82
2023/11/27 11:19:58;;;;;;;3.47;1.97;;;;;;;;;;5031658;28;20056;-81
2023/11/27 11:22:30;;;;;;;6.17;3.03;;;;;;;;;;5029216;28;20026;-80
2023/11/27 11:25:13;;;;;;;5.03;3.10;;;;;;;;;;5032638;28;20029;-81
2023/11/27 11:27:42;;;;;;;4.97;2.20;;;;;;;;;;5022693;28;20036;-81
2023/11/27 11:30:12;;;;;;;2.70;1.70;;;;;;;;;;5025210;28;20038;-81
2023/11/27 11:32:40;;;;;;;6.03;3.17;;;;;;;;;;5031072;28;20057;-81
2023/11/27 11:35:11;;;;;;;4.10;1.97;;;;;;;;;;5030291;28;20091;-82
2023/11/27 11:37:49;;;;;;;6.70;2.40;;;;;;;;;;5031938;28;20108;-81
2023/11/27 11:40:16;;;;;;;3.67;1.60;;;;;;;;;;5014307;28;20033;-81
2023/11/27 11:42:47;;;;;;;2.80;1.70;;;;;;;;;;5023994;28;20057;-81
2023/11/27 11:45:17;;;;;;;3.10;1.67;;;;;;;;;;5027119;28;20047;-82
2023/11/27 11:47:45;;;;;;;3.20;1.23;;;;;;;;;;5014434;28;20439;-84
2023/11/27 11:50:20;;;;;;;2.87;1.37;;;;;;;;;;5019244;28;20113;-85
2023/11/27 11:52:50;;;;;;;2.70;1.27;;;;;;;;;;5024687;28;20040;-83
2023/11/27 11:55:26;;;;;;;3.90;2.10;;;;;;;;;;5006249;28;20046;-86
2023/11/27 11:57:58;;;;;;;1.63;1.47;;;;;;;;;;5039682;28;20331;-82
2023/11/27 12:00:29;;;;;;;2.65;1.50;;;;;;;;;;5035327;28;20026;-82
2023/11/27 12:02:55;;;;;;;5.77;1.90;;;;;;;;;;5008716;28;20059;-82
2023/11/27 12:05:25;;;;;;;2.83;1.53;;;;;;;;;;5018888;28;20025;-82
2023/11/27 12:07:51;;;;;;;1.63;1.37;;;;;;;;;;5029463;28;20025;-82
2023/11/27 12:10:17;;;;;;;4.30;2.10;;;;;;;;;;5032927;28;20152;-85
2023/11/27 12:12:48;;;;;;;2.90;1.63;;;;;;;;;;5031574;28;20026;-84
2023/11/27 12:15:16;;;;;;;3.93;2.13;;;;;;;;;;5022466;28;20045;-81
2023/11/27 12:17:50;;;;;;;3.77;1.97;;;;;;;;;;5031466;28;20045;-80
2023/11/27 12:20:21;;;;;;;4.50;1.70;;;;;;;;;;5027774;28;20064;-80
2023/11/27 12:22:48;;;;;;;2.30;1.33;;;;;;;;;;5038678;28;20033;-82
2023/11/27 12:25:18;;;;;;;2.90;1.90;;;;;;;;;;5042115;28;20123;-81
2023/11/27 12:27:44;;;;;;;3.63;1.80;;;;;;;;;;5039316;28;20185;-83
2023/11/27 12:30:11;;;;;;;4.13;1.97;;;;;;;;;;5023612;28;20037;-81
2023/11/27 12:32:37;;;;;;;3.33;2.07;;;;;;;;;;5044076;28;20068;-79
2023/11/27 12:35:14;;;;;;;2.17;1.60;;;;;;;;;;5026788;28;20040;-80
2023/11/27 12:37:42;;;;;;;6.20;2.60;;;;;;;;;;5025574;28;20116;-79
2023/11/27 12:40:09;;;;;;;3.10;1.77;;;;;;;;;;5038133;28;20029;-79
2023/11/27 12:42:37;;;;;;;2.63;1.70;;;;;;;;;;5022853;28;20456;-80
2023/11/27 12:45:06;;;;;;;4.60;2.10;;;;;;;;;;5019305;28;20067;-81
2023/11/27 12:47:34;;;;;;;2.47;1.50;;;;;;;;;;5033124;28;20025;-81
2023/11/27 12:50:01;;;;;;;2.50;1.50;;;;;;;;;;5018281;28;20029;-80
2023/11/27 12:52:27;;;;;;;5.70;1.47;;;;;;;;;;5020468;28;20059;-80
2023/11/27 12:54:56;;;;;;;3.93;1.80;;;;;;;;;;5023193;28;20124;-79
2023/11/27 12:57:24;;;;;;;1.83;1.20;;;;;;;;;;5021689;28;20022;-81
2023/11/27 12:59:52;;;;;;;6.67;3.10;;;;;;;;;;5020822;28;20025;-80
2023/11/27 13:02:25;;;;;;;2.93;1.70;;;;;;;;;;5018557;28;20029;-80
2023/11/27 13:04:54;;;;;;;2.97;1.70;;;;;;;;;;5017908;28;20450;-80
2023/11/27 13:07:21;;;;;;;3.83;1.67;;;;;;;;;;5020480;28;20065;-80
2023/11/27 13:09:47;;;;;;;5.90;1.50;;;;;;;;;;5021966;28;20037;-80
2023/11/27 13:12:18;;;;;;;3.67;1.30;;;;;;;;;;5021654;28;20094;-80
2023/11/27 13:14:50;;;;;;;2.53;1.27;;;;;;;;;;5019372;28;20029;-82
2023/11/27 13:17:19;;;;;;;2.30;1.67;;;;;;;;;;5019000;28;20036;-80
2023/11/27 13:19:48;;;;;;;1.93;1.20;;;;;;;;;;5017959;28;20152;-80
2023/11/27 13:22:14;;;;;;;4.43;1.97;;;;;;;;;;5017211;28;20041;-80
2023/11/27 13:24:41;;;;;;;2.27;1.60;;;;;;;;;;5020946;28;20057;-80
2023/11/27 13:27:07;;;;;;;1.90;1.23;;;;;;;;;;5018561;28;20048;-80
2023/11/27 13:29:33;;;;;;;2.17;1.47;;;;;;;;;;5018988;28;20037;-80
2023/11/27 13:32:01;;;;;;;2.97;1.33;;;;;;;;;;5019251;28;20595;-80
2023/11/27 13:34:33;;;;;;;3.17;1.37;;;;;;;;;;5020674;28;20110;-80
2023/11/27 13:36:59;;;;;;;2.63;1.48;;;;;;;;;;5021196;28;20116;-80
2023/11/27 13:39:36;;;;;;;5.67;1.60;;;;;;;;;;5038337;28;20048;-81
2023/11/27 13:42:04;;;;;;;1.87;1.27;;;;;;;;;;5019394;28;21328;-80
2023/11/27 13:44:30;;;;;;;3.80;1.67;;;;;;;;;;5019623;28;20037;-81
2023/11/27 13:46:57;;;;;;;3.30;1.40;;;;;;;;;;5019798;28;20041;-80
2023/11/27 13:49:25;;;;;;;3.63;1.30;;;;;;;;;;5023305;28;20033;-80
2023/11/27 13:52:00;;;;;;;3.87;1.47;;;;;;;;;;5024864;28;20469;-80
2023/11/27 13:54:27;;;;;;;3.30;2.20;;;;;;;;;;5027209;28;20076;-80
2023/11/27 13:56:58;;;;;;;4.93;2.00;;;;;;;;;;5022003;28;20021;-80
2023/11/27 13:59:38;;;;;;;3.93;2.10;;;;;;;;;;5026490;28;20028;-81
2023/11/27 14:02:11;;;;;;;5.03;2.43;;;;;;;;;;5025501;28;20283;-81
2023/11/27 14:04:47;;;;;;;4.57;2.40;;;;;;;;;;5026098;28;20100;-81
2023/11/27 14:07:15;;;;;;;2.63;1.73;;;;;;;;;;5043707;28;20056;-81
2023/11/27 14:12:26;;;;;;;4.17;2.10;;;;;;;;;;5043705;28;20044;-80
2023/11/27 14:15:05;;;;;;;5.57;2.17;;;;;;;;;;5028514;28;20049;-81
2023/11/27 14:17:34;;;;;;;8.60;1.70;;;;;;;;;;5028315;28;20030;-81
2023/11/27 14:23:15;;;;;;;3.43;1.43;;;;;;;;;;5043706;28;20048;-81
2023/11/27 14:30:58;;;;;;;3.27;1.47;;;;;;;;;;5040416;28;20376;-80
2023/11/27 14:33:28;;;;;;;5.07;1.60;;;;;;;;;;5028094;28;20034;-80
2023/11/27 14:35:56;;;;;;;4.07;1.20;;;;;;;;;;5027374;28;20026;-80
2023/11/27 14:38:25;;;;;;;4.43;1.47;;;;;;;;;;5026454;28;20573;-80
2023/11/27 14:40:51;;;;;;;2.87;1.40;;;;;;;;;;5025483;28;20033;-80
2023/11/27 14:43:17;;;;;;;2.90;1.50;;;;;;;;;;5025223;28;20034;-80
2023/11/27 14:45:48;;;;;;;2.13;1.20;;;;;;;;;;5044962;28;20036;-80
2023/11/27 14:48:14;;;;;;;2.53;1.50;;;;;;;;;;5025753;28;20179;-80
2023/11/27 14:50:41;;;;;;;2.20;1.17;;;;;;;;;;5025437;28;20287;-80